Bear Valley Springs, California
Current Conditions -  °F | °C
As of 11:15 AM on Friday 24 Oct 2014 (Local Time) from KTSP Reporting Station
Clear Clear  
Wind Chill: 77°   Ceiling: Unl
Heat Index: 77°   Visibility: 10mi
Dew Point: 10°   Wind: 18mph
Humidity: 8%   Direction: 110°ESE
Pressure: 30.13"   Gusts: 24mph
Location:  35.1338°N, 118.552°W
Report Text: KTSP 241815Z AUTO 11016G21KT 10SM CLR 25/M12 A3013 RMK AO2
Loading
Personal Weather Stations






























Interactive Weather Map
Tropical Storm Tracking
New forecast layout! Learn more

10-Day Weather Forecast

Advertisements
Track Severe Weather on mobile